sensor_id;sensor_type;location;lat;lon;timestamp;P1;durP1;ratioP1;P2;durP2;ratioP2
1140;SDS011;559;48.628;8.924;2023-05-14T00:01:22;129.52;;;122.63;;
1140;SDS011;559;48.628;8.924;2023-05-14T00:03:50;132.52;;;125.35;;
1140;SDS011;559;48.628;8.924;2023-05-14T00:06:17;128.32;;;121.15;;
1140;SDS011;559;48.628;8.924;2023-05-14T00:08:43;137.63;;;130.25;;
1140;SDS011;559;48.628;8.924;2023-05-14T00:11:10;127.60;;;120.50;;
1140;SDS011;559;48.628;8.924;2023-05-14T00:13:36;130.63;;;123.53;;
1140;SDS011;559;48.628;8.924;2023-05-14T00:16:03;129.05;;;121.88;;
1140;SDS011;559;48.628;8.924;2023-05-14T00:18:30;131.25;;;124.10;;
1140;SDS011;559;48.628;8.924;2023-05-14T00:20:58;126.85;;;119.85;;
1140;SDS011;559;48.628;8.924;2023-05-14T00:23:25;127.93;;;120.93;;
1140;SDS011;559;48.628;8.924;2023-05-14T00:25:51;131.35;;;124.25;;
1140;SDS011;559;48.628;8.924;2023-05-14T00:28:18;132.18;;;125.10;;
1140;SDS011;559;48.628;8.924;2023-05-14T00:30:45;128.27;;;121.38;;
1140;SDS011;559;48.628;8.924;2023-05-14T00:33:11;124.85;;;117.72;;
1140;SDS011;559;48.628;8.924;2023-05-14T00:35:38;128.00;;;120.70;;
1140;SDS011;559;48.628;8.924;2023-05-14T00:38:06;122.95;;;116.13;;
1140;SDS011;559;48.628;8.924;2023-05-14T00:40:32;113.57;;;107.07;;
1140;SDS011;559;48.628;8.924;2023-05-14T00:42:59;118.22;;;111.47;;
1140;SDS011;559;48.628;8.924;2023-05-14T00:45:25;113.93;;;107.63;;
1140;SDS011;559;48.628;8.924;2023-05-14T00:47:52;111.55;;;105.18;;
1140;SDS011;559;48.628;8.924;2023-05-14T00:50:19;110.22;;;103.85;;
1140;SDS011;559;48.628;8.924;2023-05-14T00:52:46;113.55;;;107.15;;
1140;SDS011;559;48.628;8.924;2023-05-14T00:55:14;107.28;;;101.07;;
1140;SDS011;559;48.628;8.924;2023-05-14T00:57:41;110.85;;;104.63;;
1140;SDS011;559;48.628;8.924;2023-05-14T01:00:08;115.13;;;107.97;;
1140;SDS011;559;48.628;8.924;2023-05-14T01:02:35;110.65;;;104.45;;
1140;SDS011;559;48.628;8.924;2023-05-14T01:05:01;110.20;;;103.68;;
1140;SDS011;559;48.628;8.924;2023-05-14T01:07:30;115.13;;;108.75;;
1140;SDS011;559;48.628;8.924;2023-05-14T01:10:02;111.00;;;104.70;;
1140;SDS011;559;48.628;8.924;2023-05-14T01:12:36;110.50;;;104.05;;
1140;SDS011;559;48.628;8.924;2023-05-14T01:15:05;114.00;;;107.45;;
1140;SDS011;559;48.628;8.924;2023-05-14T01:17:36;114.03;;;107.40;;
1140;SDS011;559;48.628;8.924;2023-05-14T01:20:08;114.07;;;107.65;;
1140;SDS011;559;48.628;8.924;2023-05-14T01:22:36;117.20;;;110.60;;
1140;SDS011;559;48.628;8.924;2023-05-14T01:25:03;112.10;;;105.70;;
1140;SDS011;559;48.628;8.924;2023-05-14T01:27:31;112.40;;;106.20;;
1140;SDS011;559;48.628;8.924;2023-05-14T01:30:02;112.95;;;106.03;;
1140;SDS011;559;48.628;8.924;2023-05-14T01:32:33;110.43;;;104.15;;
1140;SDS011;559;48.628;8.924;2023-05-14T01:35:01;119.18;;;112.47;;
1140;SDS011;559;48.628;8.924;2023-05-14T01:37:28;116.20;;;109.80;;
1140;SDS011;559;48.628;8.924;2023-05-14T01:39:56;113.57;;;107.05;;
1140;SDS011;559;48.628;8.924;2023-05-14T01:42:25;115.47;;;109.18;;
1140;SDS011;559;48.628;8.924;2023-05-14T01:44:51;114.53;;;108.22;;
1140;SDS011;559;48.628;8.924;2023-05-14T01:47:21;122.13;;;115.53;;
1140;SDS011;559;48.628;8.924;2023-05-14T01:49:50;123.45;;;116.70;;
1140;SDS011;559;48.628;8.924;2023-05-14T01:52:17;119.60;;;112.97;;
1140;SDS011;559;48.628;8.924;2023-05-14T01:54:45;118.20;;;111.30;;
1140;SDS011;559;48.628;8.924;2023-05-14T01:57:13;120.75;;;114.03;;
1140;SDS011;559;48.628;8.924;2023-05-14T01:59:39;113.10;;;106.55;;
1140;SDS011;559;48.628;8.924;2023-05-14T02:02:06;112.43;;;105.85;;
1140;SDS011;559;48.628;8.924;2023-05-14T02:04:32;112.03;;;105.72;;
1140;SDS011;559;48.628;8.924;2023-05-14T02:06:59;107.13;;;100.93;;
1140;SDS011;559;48.628;8.924;2023-05-14T02:09:25;101.82;;;95.65;;
1140;SDS011;559;48.628;8.924;2023-05-14T02:11:52;104.25;;;97.82;;
1140;SDS011;559;48.628;8.924;2023-05-14T02:14:19;112.13;;;105.72;;
1140;SDS011;559;48.628;8.924;2023-05-14T02:16:46;111.70;;;105.10;;
1140;SDS011;559;48.628;8.924;2023-05-14T02:19:12;112.72;;;106.20;;
1140;SDS011;559;48.628;8.924;2023-05-14T02:21:39;117.50;;;110.78;;
1140;SDS011;559;48.628;8.924;2023-05-14T02:24:06;116.82;;;110.18;;
1140;SDS011;559;48.628;8.924;2023-05-14T02:26:32;116.78;;;110.07;;
1140;SDS011;559;48.628;8.924;2023-05-14T02:28:59;115.20;;;108.43;;
1140;SDS011;559;48.628;8.924;2023-05-14T02:31:28;110.03;;;103.43;;
1140;SDS011;559;48.628;8.924;2023-05-14T02:33:57;113.30;;;105.85;;
1140;SDS011;559;48.628;8.924;2023-05-14T02:36:23;107.63;;;101.15;;
1140;SDS011;559;48.628;8.924;2023-05-14T02:38:50;111.28;;;104.57;;
1140;SDS011;559;48.628;8.924;2023-05-14T02:41:16;114.03;;;107.53;;
1140;SDS011;559;48.628;8.924;2023-05-14T02:43:43;113.25;;;106.50;;
1140;SDS011;559;48.628;8.924;2023-05-14T02:46:10;114.85;;;108.15;;
1140;SDS011;559;48.628;8.924;2023-05-14T02:48:38;112.10;;;105.72;;
1140;SDS011;559;48.628;8.924;2023-05-14T02:51:05;113.53;;;106.88;;
1140;SDS011;559;48.628;8.924;2023-05-14T02:53:32;111.40;;;104.88;;
1140;SDS011;559;48.628;8.924;2023-05-14T02:55:58;112.55;;;105.97;;
1140;SDS011;559;48.628;8.924;2023-05-14T02:58:25;105.80;;;99.50;;
1140;SDS011;559;48.628;8.924;2023-05-14T03:00:51;109.38;;;102.97;;
1140;SDS011;559;48.628;8.924;2023-05-14T03:03:18;107.43;;;101.13;;
1140;SDS011;559;48.628;8.924;2023-05-14T03:05:46;113.63;;;106.93;;
1140;SDS011;559;48.628;8.924;2023-05-14T03:08:14;106.97;;;100.78;;
1140;SDS011;559;48.628;8.924;2023-05-14T03:10:41;109.63;;;103.05;;
1140;SDS011;559;48.628;8.924;2023-05-14T03:13:07;109.53;;;102.85;;
1140;SDS011;559;48.628;8.924;2023-05-14T03:15:34;109.25;;;102.85;;
1140;SDS011;559;48.628;8.924;2023-05-14T03:18:00;116.95;;;110.25;;
1140;SDS011;559;48.628;8.924;2023-05-14T03:20:27;118.18;;;111.50;;
1140;SDS011;559;48.628;8.924;2023-05-14T03:22:54;117.35;;;110.68;;
1140;SDS011;559;48.628;8.924;2023-05-14T03:25:21;115.72;;;109.03;;
1140;SDS011;559;48.628;8.924;2023-05-14T03:27:47;119.50;;;112.70;;
1140;SDS011;559;48.628;8.924;2023-05-14T03:30:14;121.03;;;114.25;;
1140;SDS011;559;48.628;8.924;2023-05-14T03:32:41;122.30;;;115.38;;
1140;SDS011;559;48.628;8.924;2023-05-14T03:35:10;122.47;;;115.18;;
1140;SDS011;559;48.628;8.924;2023-05-14T03:37:37;123.80;;;116.80;;
1140;SDS011;559;48.628;8.924;2023-05-14T03:40:05;118.28;;;111.18;;
1140;SDS011;559;48.628;8.924;2023-05-14T03:42:32;122.18;;;115.05;;
1140;SDS011;559;48.628;8.924;2023-05-14T03:44:59;126.97;;;119.47;;
1140;SDS011;559;48.628;8.924;2023-05-14T03:47:25;126.85;;;119.55;;
1140;SDS011;559;48.628;8.924;2023-05-14T03:49:52;131.00;;;123.88;;
1140;SDS011;559;48.628;8.924;2023-05-14T03:52:19;131.27;;;124.00;;
1140;SDS011;559;48.628;8.924;2023-05-14T03:54:45;132.73;;;125.60;;
1140;SDS011;559;48.628;8.924;2023-05-14T03:57:13;131.93;;;124.60;;
1140;SDS011;559;48.628;8.924;2023-05-14T03:59:40;129.45;;;122.20;;
1140;SDS011;559;48.628;8.924;2023-05-14T04:02:06;129.82;;;122.53;;
1140;SDS011;559;48.628;8.924;2023-05-14T04:04:33;130.25;;;122.97;;
1140;SDS011;559;48.628;8.924;2023-05-14T04:06:59;134.15;;;126.65;;
1140;SDS011;559;48.628;8.924;2023-05-14T04:09:26;126.22;;;119.10;;
1140;SDS011;559;48.628;8.924;2023-05-14T04:11:52;132.07;;;124.68;;
1140;SDS011;559;48.628;8.924;2023-05-14T04:14:20;123.80;;;116.70;;
1140;SDS011;559;48.628;8.924;2023-05-14T04:16:46;125.55;;;118.47;;
1140;SDS011;559;48.628;8.924;2023-05-14T04:19:13;120.05;;;113.15;;
1140;SDS011;559;48.628;8.924;2023-05-14T04:21:39;126.22;;;118.82;;
1140;SDS011;559;48.628;8.924;2023-05-14T04:24:06;122.05;;;115.10;;
1140;SDS011;559;48.628;8.924;2023-05-14T04:26:33;121.05;;;114.05;;
1140;SDS011;559;48.628;8.924;2023-05-14T04:29:00;121.47;;;114.53;;
1140;SDS011;559;48.628;8.924;2023-05-14T04:31:28;122.13;;;115.20;;
1140;SDS011;559;48.628;8.924;2023-05-14T04:33:55;114.85;;;108.22;;
1140;SDS011;559;48.628;8.924;2023-05-14T04:36:22;118.50;;;111.60;;
1140;SDS011;559;48.628;8.924;2023-05-14T04:38:48;115.20;;;108.30;;
1140;SDS011;559;48.628;8.924;2023-05-14T04:41:15;116.45;;;109.65;;
1140;SDS011;559;48.628;8.924;2023-05-14T04:43:42;119.55;;;112.65;;
1140;SDS011;559;48.628;8.924;2023-05-14T04:46:08;115.13;;;108.50;;
1140;SDS011;559;48.628;8.924;2023-05-14T04:48:36;120.72;;;113.72;;
1140;SDS011;559;48.628;8.924;2023-05-14T04:51:03;117.75;;;110.53;;
1140;SDS011;559;48.628;8.924;2023-05-14T04:53:29;119.68;;;112.57;;
1140;SDS011;559;48.628;8.924;2023-05-14T04:55:56;120.43;;;113.30;;
1140;SDS011;559;48.628;8.924;2023-05-14T04:58:22;116.20;;;109.30;;
1140;SDS011;559;48.628;8.924;2023-05-14T05:00:51;125.20;;;117.88;;
1140;SDS011;559;48.628;8.924;2023-05-14T05:03:21;123.97;;;116.78;;
1140;SDS011;559;48.628;8.924;2023-05-14T05:05:56;126.80;;;119.50;;
1140;SDS011;559;48.628;8.924;2023-05-14T05:08:32;126.15;;;118.90;;
1140;SDS011;559;48.628;8.924;2023-05-14T05:10:58;120.57;;;113.72;;
1140;SDS011;559;48.628;8.924;2023-05-14T05:13:25;125.80;;;118.55;;
1140;SDS011;559;48.628;8.924;2023-05-14T05:15:51;124.13;;;117.05;;
1140;SDS011;559;48.628;8.924;2023-05-14T05:18:18;123.78;;;116.60;;
1140;SDS011;559;48.628;8.924;2023-05-14T05:20:44;124.28;;;116.93;;
1140;SDS011;559;48.628;8.924;2023-05-14T05:23:12;127.65;;;120.47;;
1140;SDS011;559;48.628;8.924;2023-05-14T05:25:39;130.00;;;122.78;;
1140;SDS011;559;48.628;8.924;2023-05-14T05:28:06;130.43;;;123.10;;
1140;SDS011;559;48.628;8.924;2023-05-14T05:30:32;124.97;;;117.97;;
1140;SDS011;559;48.628;8.924;2023-05-14T05:32:59;119.38;;;112.63;;
1140;SDS011;559;48.628;8.924;2023-05-14T05:35:25;118.32;;;111.72;;
1140;SDS011;559;48.628;8.924;2023-05-14T05:37:52;117.95;;;111.30;;
1140;SDS011;559;48.628;8.924;2023-05-14T05:40:20;127.10;;;120.30;;
1140;SDS011;559;48.628;8.924;2023-05-14T05:42:46;123.38;;;116.60;;
1140;SDS011;559;48.628;8.924;2023-05-14T05:45:13;124.85;;;118.15;;
1140;SDS011;559;48.628;8.924;2023-05-14T05:47:40;117.20;;;110.80;;
1140;SDS011;559;48.628;8.924;2023-05-14T05:50:06;119.53;;;112.75;;
1140;SDS011;559;48.628;8.924;2023-05-14T05:52:34;103.22;;;97.32;;
1140;SDS011;559;48.628;8.924;2023-05-14T05:55:00;109.28;;;102.90;;
1140;SDS011;559;48.628;8.924;2023-05-14T05:57:29;97.90;;;91.93;;
1140;SDS011;559;48.628;8.924;2023-05-14T05:59:55;97.88;;;91.68;;
1140;SDS011;559;48.628;8.924;2023-05-14T06:02:22;97.38;;;90.55;;
1140;SDS011;559;48.628;8.924;2023-05-14T06:04:49;92.82;;;86.82;;
1140;SDS011;559;48.628;8.924;2023-05-14T06:07:16;95.50;;;89.72;;
1140;SDS011;559;48.628;8.924;2023-05-14T06:09:42;96.78;;;91.07;;
1140;SDS011;559;48.628;8.924;2023-05-14T06:12:09;99.00;;;93.13;;
1140;SDS011;559;48.628;8.924;2023-05-14T06:14:37;99.32;;;93.32;;
1140;SDS011;559;48.628;8.924;2023-05-14T06:17:03;96.93;;;91.18;;
1140;SDS011;559;48.628;8.924;2023-05-14T06:19:30;96.93;;;91.00;;
1140;SDS011;559;48.628;8.924;2023-05-14T06:21:56;109.50;;;103.00;;
1140;SDS011;559;48.628;8.924;2023-05-14T06:24:23;104.15;;;97.65;;
1140;SDS011;559;48.628;8.924;2023-05-14T06:26:49;106.18;;;99.80;;
1140;SDS011;559;48.628;8.924;2023-05-14T06:29:16;111.88;;;104.75;;
1140;SDS011;559;48.628;8.924;2023-05-14T06:31:44;111.78;;;104.95;;
1140;SDS011;559;48.628;8.924;2023-05-14T06:34:10;114.68;;;107.88;;
1140;SDS011;559;48.628;8.924;2023-05-14T06:36:37;113.18;;;106.38;;
1140;SDS011;559;48.628;8.924;2023-05-14T06:39:04;114.60;;;107.63;;
1140;SDS011;559;48.628;8.924;2023-05-14T06:41:30;113.03;;;106.20;;
1140;SDS011;559;48.628;8.924;2023-05-14T06:43:57;112.68;;;105.78;;
1140;SDS011;559;48.628;8.924;2023-05-14T06:46:23;107.78;;;101.10;;
1140;SDS011;559;48.628;8.924;2023-05-14T06:48:51;105.53;;;99.22;;
1140;SDS011;559;48.628;8.924;2023-05-14T06:51:18;108.95;;;102.65;;
1140;SDS011;559;48.628;8.924;2023-05-14T06:53:44;111.05;;;104.60;;
1140;SDS011;559;48.628;8.924;2023-05-14T06:56:12;105.40;;;99.00;;
1140;SDS011;559;48.628;8.924;2023-05-14T06:58:39;102.40;;;96.20;;
1140;SDS011;559;48.628;8.924;2023-05-14T07:01:06;104.35;;;98.07;;
1140;SDS011;559;48.628;8.924;2023-05-14T07:03:32;102.05;;;95.95;;
1140;SDS011;559;48.628;8.924;2023-05-14T07:06:00;102.72;;;96.35;;
1140;SDS011;559;48.628;8.924;2023-05-14T07:08:27;105.47;;;99.38;;
1140;SDS011;559;48.628;8.924;2023-05-14T07:10:53;95.15;;;89.35;;
1140;SDS011;559;48.628;8.924;2023-05-14T07:13:21;87.78;;;82.07;;
1140;SDS011;559;48.628;8.924;2023-05-14T07:15:48;97.03;;;90.88;;
1140;SDS011;559;48.628;8.924;2023-05-14T07:18:15;103.78;;;97.50;;
1140;SDS011;559;48.628;8.924;2023-05-14T07:20:41;104.03;;;97.82;;
1140;SDS011;559;48.628;8.924;2023-05-14T07:23:11;101.35;;;94.82;;
1140;SDS011;559;48.628;8.924;2023-05-14T07:25:38;100.75;;;94.45;;
1140;SDS011;559;48.628;8.924;2023-05-14T07:28:04;99.10;;;92.80;;
1140;SDS011;559;48.628;8.924;2023-05-14T07:30:31;96.97;;;90.90;;
1140;SDS011;559;48.628;8.924;2023-05-14T07:32:58;104.15;;;97.90;;
1140;SDS011;559;48.628;8.924;2023-05-14T07:35:24;95.82;;;89.75;;
1140;SDS011;559;48.628;8.924;2023-05-14T07:37:51;91.90;;;86.40;;
1140;SDS011;559;48.628;8.924;2023-05-14T07:40:19;98.55;;;92.63;;
1140;SDS011;559;48.628;8.924;2023-05-14T07:42:46;101.30;;;94.90;;
1140;SDS011;559;48.628;8.924;2023-05-14T07:45:12;94.90;;;89.10;;
1140;SDS011;559;48.628;8.924;2023-05-14T07:47:39;91.13;;;85.18;;
1140;SDS011;559;48.628;8.924;2023-05-14T07:50:06;83.68;;;78.07;;
1140;SDS011;559;48.628;8.924;2023-05-14T07:52:33;86.78;;;81.18;;
1140;SDS011;559;48.628;8.924;2023-05-14T07:55:01;84.40;;;79.10;;
1140;SDS011;559;48.628;8.924;2023-05-14T07:57:29;86.07;;;80.57;;
1140;SDS011;559;48.628;8.924;2023-05-14T07:59:55;85.97;;;80.22;;
1140;SDS011;559;48.628;8.924;2023-05-14T08:02:22;86.18;;;80.55;;
1140;SDS011;559;48.628;8.924;2023-05-14T08:04:48;88.38;;;82.75;;
1140;SDS011;559;48.628;8.924;2023-05-14T08:07:15;79.72;;;74.43;;
1140;SDS011;559;48.628;8.924;2023-05-14T08:09:41;79.97;;;74.63;;
1140;SDS011;559;48.628;8.924;2023-05-14T08:12:08;80.57;;;75.20;;
1140;SDS011;559;48.628;8.924;2023-05-14T08:14:36;80.10;;;74.78;;
1140;SDS011;559;48.628;8.924;2023-05-14T08:17:02;81.05;;;75.55;;
1140;SDS011;559;48.628;8.924;2023-05-14T08:19:30;80.07;;;74.68;;
1140;SDS011;559;48.628;8.924;2023-05-14T08:21:56;78.07;;;72.95;;
1140;SDS011;559;48.628;8.924;2023-05-14T08:24:23;80.57;;;75.18;;
1140;SDS011;559;48.628;8.924;2023-05-14T08:26:49;80.30;;;74.88;;
1140;SDS011;559;48.628;8.924;2023-05-14T08:29:16;75.57;;;70.35;;
1140;SDS011;559;48.628;8.924;2023-05-14T08:31:44;80.20;;;74.85;;
1140;SDS011;559;48.628;8.924;2023-05-14T08:34:10;76.35;;;71.15;;
1140;SDS011;559;48.628;8.924;2023-05-14T08:36:37;75.43;;;70.32;;
1140;SDS011;559;48.628;8.924;2023-05-14T08:39:03;72.57;;;67.72;;
1140;SDS011;559;48.628;8.924;2023-05-14T08:41:31;76.43;;;71.43;;
1140;SDS011;559;48.628;8.924;2023-05-14T08:44:03;74.57;;;69.68;;
1140;SDS011;559;48.628;8.924;2023-05-14T08:46:33;66.50;;;61.70;;
1140;SDS011;559;48.628;8.924;2023-05-14T08:49:09;67.50;;;62.70;;
1140;SDS011;559;48.628;8.924;2023-05-14T08:51:42;70.75;;;65.82;;
1140;SDS011;559;48.628;8.924;2023-05-14T08:54:09;65.40;;;60.67;;
1140;SDS011;559;48.628;8.924;2023-05-14T08:56:39;64.30;;;60.25;;
1140;SDS011;559;48.628;8.924;2023-05-14T08:59:05;67.50;;;63.03;;
1140;SDS011;559;48.628;8.924;2023-05-14T09:01:32;62.90;;;58.60;;
1140;SDS011;559;48.628;8.924;2023-05-14T09:03:59;63.65;;;59.20;;
1140;SDS011;559;48.628;8.924;2023-05-14T09:06:32;63.13;;;59.03;;
1140;SDS011;559;48.628;8.924;2023-05-14T09:08:59;60.47;;;56.67;;
1140;SDS011;559;48.628;8.924;2023-05-14T09:11:26;60.03;;;56.40;;
1140;SDS011;559;48.628;8.924;2023-05-14T09:13:52;60.90;;;56.87;;
1140;SDS011;559;48.628;8.924;2023-05-14T09:16:19;59.90;;;56.03;;
1140;SDS011;559;48.628;8.924;2023-05-14T09:18:46;59.80;;;56.03;;
1140;SDS011;559;48.628;8.924;2023-05-14T09:21:12;61.63;;;57.63;;
1140;SDS011;559;48.628;8.924;2023-05-14T09:23:41;56.50;;;52.90;;
1140;SDS011;559;48.628;8.924;2023-05-14T09:26:08;55.97;;;52.40;;
1140;SDS011;559;48.628;8.924;2023-05-14T09:28:38;52.87;;;48.83;;
1140;SDS011;559;48.628;8.924;2023-05-14T09:31:05;51.77;;;48.57;;
1140;SDS011;559;48.628;8.924;2023-05-14T09:33:33;51.47;;;48.17;;
1140;SDS011;559;48.628;8.924;2023-05-14T09:36:01;50.17;;;46.80;;
1140;SDS011;559;48.628;8.924;2023-05-14T09:38:29;50.43;;;46.90;;
1140;SDS011;559;48.628;8.924;2023-05-14T09:40:59;45.33;;;42.73;;
1140;SDS011;559;48.628;8.924;2023-05-14T09:43:26;47.17;;;44.47;;
1140;SDS011;559;48.628;8.924;2023-05-14T09:45:57;48.60;;;45.77;;
1140;SDS011;559;48.628;8.924;2023-05-14T09:48:32;47.30;;;44.50;;
1140;SDS011;559;48.628;8.924;2023-05-14T10:22:33;39.10;;;37.23;;
1140;SDS011;559;48.628;8.924;2023-05-14T10:25:03;35.90;;;33.87;;
1140;SDS011;559;48.628;8.924;2023-05-14T10:27:33;35.60;;;34.10;;
1140;SDS011;559;48.628;8.924;2023-05-14T10:29:59;37.97;;;36.07;;
1140;SDS011;559;48.628;8.924;2023-05-14T10:32:32;45.73;;;43.20;;
1140;SDS011;559;48.628;8.924;2023-05-14T10:35:01;52.60;;;49.10;;
1140;SDS011;559;48.628;8.924;2023-05-14T10:37:42;55.07;;;51.67;;
1140;SDS011;559;48.628;8.924;2023-05-14T10:40:09;56.40;;;52.47;;
1140;SDS011;559;48.628;8.924;2023-05-14T10:42:38;59.13;;;55.17;;
1140;SDS011;559;48.628;8.924;2023-05-14T10:45:05;54.27;;;50.50;;
1140;SDS011;559;48.628;8.924;2023-05-14T10:47:33;54.40;;;50.90;;
1140;SDS011;559;48.628;8.924;2023-05-14T10:50:01;54.57;;;50.93;;
1140;SDS011;559;48.628;8.924;2023-05-14T10:52:28;51.67;;;48.43;;
1140;SDS011;559;48.628;8.924;2023-05-14T10:54:57;50.87;;;47.83;;
1140;SDS011;559;48.628;8.924;2023-05-14T10:57:25;56.10;;;52.70;;
1140;SDS011;559;48.628;8.924;2023-05-14T10:59:53;61.33;;;57.40;;
1140;SDS011;559;48.628;8.924;2023-05-14T11:02:21;68.37;;;63.67;;
1140;SDS011;559;48.628;8.924;2023-05-14T11:04:51;69.80;;;65.30;;
1140;SDS011;559;48.628;8.924;2023-05-14T11:07:19;64.20;;;59.87;;
1140;SDS011;559;48.628;8.924;2023-05-14T11:09:49;67.70;;;63.13;;
1140;SDS011;559;48.628;8.924;2023-05-14T11:12:17;68.37;;;63.67;;
1140;SDS011;559;48.628;8.924;2023-05-14T11:14:44;64.23;;;60.03;;
1140;SDS011;559;48.628;8.924;2023-05-14T11:17:11;54.70;;;51.10;;
1140;SDS011;559;48.628;8.924;2023-05-14T11:19:38;53.30;;;50.10;;
1140;SDS011;559;48.628;8.924;2023-05-14T11:22:04;51.47;;;48.27;;
1140;SDS011;559;48.628;8.924;2023-05-14T11:24:32;50.30;;;47.33;;
1140;SDS011;559;48.628;8.924;2023-05-14T11:27:00;54.90;;;51.60;;
1140;SDS011;559;48.628;8.924;2023-05-14T11:29:28;48.20;;;45.40;;
1140;SDS011;559;48.628;8.924;2023-05-14T11:31:54;48.00;;;45.30;;
1140;SDS011;559;48.628;8.924;2023-05-14T11:34:21;47.43;;;44.93;;
1140;SDS011;559;48.628;8.924;2023-05-14T11:36:47;45.53;;;43.13;;
1140;SDS011;559;48.628;8.924;2023-05-14T11:39:16;46.37;;;43.87;;
1140;SDS011;559;48.628;8.924;2023-05-14T11:41:43;46.33;;;43.83;;
1140;SDS011;559;48.628;8.924;2023-05-14T11:44:10;42.37;;;40.37;;
1140;SDS011;559;48.628;8.924;2023-05-14T11:46:38;39.70;;;37.90;;
1140;SDS011;559;48.628;8.924;2023-05-14T11:49:05;41.87;;;39.87;;
1140;SDS011;559;48.628;8.924;2023-05-14T11:51:32;42.13;;;40.20;;
1140;SDS011;559;48.628;8.924;2023-05-14T11:53:58;46.37;;;44.00;;
1140;SDS011;559;48.628;8.924;2023-05-14T11:56:25;45.70;;;43.20;;
1140;SDS011;559;48.628;8.924;2023-05-14T11:58:54;44.60;;;42.40;;
1140;SDS011;559;48.628;8.924;2023-05-14T12:01:22;45.50;;;43.20;;
1140;SDS011;559;48.628;8.924;2023-05-14T12:03:50;47.17;;;45.03;;
1140;SDS011;559;48.628;8.924;2023-05-14T12:06:16;40.30;;;38.80;;
1140;SDS011;559;48.628;8.924;2023-05-14T12:08:43;56.90;;;54.83;;
1140;SDS011;559;48.628;8.924;2023-05-14T12:11:13;53.83;;;51.63;;
1140;SDS011;559;48.628;8.924;2023-05-14T12:13:39;57.20;;;54.93;;
1140;SDS011;559;48.628;8.924;2023-05-14T12:16:06;52.90;;;51.10;;
1140;SDS011;559;48.628;8.924;2023-05-14T12:18:32;57.17;;;54.80;;
1140;SDS011;559;48.628;8.924;2023-05-14T12:21:04;64.83;;;61.90;;
1140;SDS011;559;48.628;8.924;2023-05-14T12:23:32;74.47;;;71.30;;
1140;SDS011;559;48.628;8.924;2023-05-14T12:26:02;67.87;;;64.37;;
1140;SDS011;559;48.628;8.924;2023-05-14T12:28:30;73.80;;;70.07;;
1140;SDS011;559;48.628;8.924;2023-05-14T12:30:56;70.97;;;66.63;;
1140;SDS011;559;48.628;8.924;2023-05-14T12:33:24;71.07;;;66.77;;
1140;SDS011;559;48.628;8.924;2023-05-14T12:35:51;67.13;;;62.93;;
1140;SDS011;559;48.628;8.924;2023-05-14T12:38:22;64.00;;;59.80;;
1140;SDS011;559;48.628;8.924;2023-05-14T12:40:49;70.00;;;65.60;;
1140;SDS011;559;48.628;8.924;2023-05-14T12:43:15;65.17;;;61.07;;
1140;SDS011;559;48.628;8.924;2023-05-14T12:45:42;72.17;;;67.67;;
1140;SDS011;559;48.628;8.924;2023-05-14T12:48:08;71.67;;;67.10;;
1140;SDS011;559;48.628;8.924;2023-05-14T12:50:35;67.70;;;63.30;;
1140;SDS011;559;48.628;8.924;2023-05-14T12:53:01;68.93;;;64.63;;
1140;SDS011;559;48.628;8.924;2023-05-14T12:55:29;70.83;;;66.37;;
1140;SDS011;559;48.628;8.924;2023-05-14T12:57:58;69.80;;;65.50;;
1140;SDS011;559;48.628;8.924;2023-05-14T13:00:24;71.47;;;67.07;;
1140;SDS011;559;48.628;8.924;2023-05-14T13:02:54;71.20;;;66.80;;
1140;SDS011;559;48.628;8.924;2023-05-14T13:05:20;74.60;;;69.90;;
1140;SDS011;559;48.628;8.924;2023-05-14T13:07:47;76.70;;;72.00;;
1140;SDS011;559;48.628;8.924;2023-05-14T13:10:13;68.47;;;63.87;;
1140;SDS011;559;48.628;8.924;2023-05-14T13:12:43;70.83;;;66.43;;
1140;SDS011;559;48.628;8.924;2023-05-14T13:15:10;72.33;;;68.00;;
1140;SDS011;559;48.628;8.924;2023-05-14T13:17:37;70.60;;;66.30;;
1140;SDS011;559;48.628;8.924;2023-05-14T13:20:07;64.17;;;60.17;;
1140;SDS011;559;48.628;8.924;2023-05-14T13:22:34;69.60;;;65.30;;
1140;SDS011;559;48.628;8.924;2023-05-14T13:25:01;72.77;;;68.07;;
1140;SDS011;559;48.628;8.924;2023-05-14T13:27:28;82.53;;;76.47;;
1140;SDS011;559;48.628;8.924;2023-05-14T13:29:56;77.77;;;72.77;;
1140;SDS011;559;48.628;8.924;2023-05-14T13:32:26;78.77;;;73.87;;
1140;SDS011;559;48.628;8.924;2023-05-14T13:34:52;82.97;;;77.50;;
1140;SDS011;559;48.628;8.924;2023-05-14T13:37:19;81.17;;;75.87;;
1140;SDS011;559;48.628;8.924;2023-05-14T13:39:45;83.93;;;78.67;;
1140;SDS011;559;48.628;8.924;2023-05-14T13:42:12;87.73;;;82.27;;
1140;SDS011;559;48.628;8.924;2023-05-14T13:44:38;90.20;;;84.70;;
1140;SDS011;559;48.628;8.924;2023-05-14T13:47:06;84.60;;;79.10;;
1140;SDS011;559;48.628;8.924;2023-05-14T13:49:33;84.80;;;79.63;;
1140;SDS011;559;48.628;8.924;2023-05-14T13:51:59;84.13;;;78.83;;
1140;SDS011;559;48.628;8.924;2023-05-14T13:54:26;82.20;;;76.80;;
1140;SDS011;559;48.628;8.924;2023-05-14T13:56:52;87.83;;;82.13;;
1140;SDS011;559;48.628;8.924;2023-05-14T13:59:19;81.23;;;75.93;;
1140;SDS011;559;48.628;8.924;2023-05-14T14:01:45;86.13;;;80.83;;
1140;SDS011;559;48.628;8.924;2023-05-14T14:04:15;87.00;;;81.50;;
1140;SDS011;559;48.628;8.924;2023-05-14T14:06:41;87.90;;;82.40;;
1140;SDS011;559;48.628;8.924;2023-05-14T14:09:08;85.20;;;79.90;;
1140;SDS011;559;48.628;8.924;2023-05-14T14:11:37;88.07;;;82.53;;
1140;SDS011;559;48.628;8.924;2023-05-14T14:14:04;90.17;;;84.60;;
1140;SDS011;559;48.628;8.924;2023-05-14T14:16:30;88.90;;;83.37;;
1140;SDS011;559;48.628;8.924;2023-05-14T14:18:57;88.03;;;82.43;;
1140;SDS011;559;48.628;8.924;2023-05-14T14:21:24;79.30;;;74.03;;
1140;SDS011;559;48.628;8.924;2023-05-14T14:23:51;65.10;;;60.90;;
1140;SDS011;559;48.628;8.924;2023-05-14T14:26:17;64.30;;;60.20;;
1140;SDS011;559;48.628;8.924;2023-05-14T14:28:45;66.77;;;62.60;;
1140;SDS011;559;48.628;8.924;2023-05-14T14:31:11;63.67;;;59.63;;
1140;SDS011;559;48.628;8.924;2023-05-14T14:33:38;60.10;;;56.37;;
1140;SDS011;559;48.628;8.924;2023-05-14T14:36:05;61.37;;;57.53;;
1140;SDS011;559;48.628;8.924;2023-05-14T14:38:33;58.10;;;54.40;;
1140;SDS011;559;48.628;8.924;2023-05-14T14:40:59;58.97;;;55.40;;
1140;SDS011;559;48.628;8.924;2023-05-14T14:43:27;58.90;;;55.30;;
1140;SDS011;559;48.628;8.924;2023-05-14T14:45:55;58.93;;;55.43;;
1140;SDS011;559;48.628;8.924;2023-05-14T14:48:23;54.80;;;51.20;;
1140;SDS011;559;48.628;8.924;2023-05-14T14:50:50;54.57;;;51.27;;
1140;SDS011;559;48.628;8.924;2023-05-14T14:53:17;53.50;;;50.30;;
1140;SDS011;559;48.628;8.924;2023-05-14T14:55:45;54.80;;;51.27;;
1140;SDS011;559;48.628;8.924;2023-05-14T14:58:16;51.70;;;48.50;;
1140;SDS011;559;48.628;8.924;2023-05-14T15:00:45;52.70;;;49.50;;
1140;SDS011;559;48.628;8.924;2023-05-14T15:03:16;53.97;;;50.67;;
1140;SDS011;559;48.628;8.924;2023-05-14T15:05:42;53.20;;;49.70;;
1140;SDS011;559;48.628;8.924;2023-05-14T15:08:09;52.77;;;49.47;;
1140;SDS011;559;48.628;8.924;2023-05-14T15:10:36;54.30;;;51.00;;
1140;SDS011;559;48.628;8.924;2023-05-14T15:13:04;54.20;;;50.90;;
1140;SDS011;559;48.628;8.924;2023-05-14T15:15:32;49.90;;;47.10;;
1140;SDS011;559;48.628;8.924;2023-05-14T15:17:59;48.23;;;45.50;;
1140;SDS011;559;48.628;8.924;2023-05-14T15:20:25;49.67;;;46.87;;